Decoded Metar for KW29 (STEVENSVILLE in MD, USA) (IATA:W29) | Meteo·Mobile Aviation Weather
aviador You're here:

KW29 Decoded Metar

STEVENSVILLE in MD, USA
Report Time2019-02-20 01:40:00
UTC Time2019-02-20 02:01:29
Flight Rules vfr VFR
WindCalm
Visibility9999 m
Phenomena:N/A
Clouds:N/A
Expected CloudBase > 4,400 ft AGL from Temp-Dew spread
CeilingNone
Temp02°C (ISA -13)
Dew Point-9°C (44% RH)
AAT-1.0°C
QNH1037 hPa
Density Alt-2,287 ft
Elevation49 ft
Report Wrong Elevation
Raw Report
KW29 200140Z AUTO 00000KT 10SM CLR 02/M09 A3062 RMK AO2=

Extra information for KW29:More info

Metar Taf Metar & Taf Last 4 Metars F.Rules Stats Wind Profile Meteogram Temp Stats Airport Information Weather charts Add Link Nearby VenuesMetar ALERT Operation Metar Decoded Social comments

AIRNAV info for KW29